Time;durP1;ratioP1;P1;durP2;ratioP2;P2;SDS_P1;SDS_P2;PMS_P1;PMS_P2;Temp;Humidity;BMP_temperature;BMP_pressure;BME280_temperature;BME280_humidity;BME280_pressure;Samples;Min_cycle;Max_cycle;Signal;HPM_P1;HPM_P2
2023/08/02 00:02:14;;;;;;;8.23;3.47;;;;;;;15.22;100.00;100027.88;5029489;28;20033;-77
2023/08/02 00:04:41;;;;;;;9.32;3.13;;;;;;;15.19;100.00;100022.88;5030552;28;20051;-77
2023/08/02 00:07:07;;;;;;;7.85;3.30;;;;;;;15.13;100.00;100015.56;5024896;28;20029;-77
2023/08/02 00:09:33;;;;;;;9.60;3.53;;;;;;;15.07;100.00;100025.00;5020596;28;20120;-77
2023/08/02 00:11:58;;;;;;;8.57;3.40;;;;;;;15.05;100.00;100024.34;5012324;28;20112;-77
2023/08/02 00:14:24;;;;;;;7.30;3.10;;;;;;;15.02;100.00;100022.84;5029309;28;20409;-77
2023/08/02 00:16:49;;;;;;;7.90;3.30;;;;;;;15.00;100.00;100016.06;5008719;28;20117;-77
2023/08/02 00:19:15;;;;;;;7.03;3.30;;;;;;;14.98;100.00;100026.81;5012928;28;20025;-77
2023/08/02 00:21:41;;;;;;;8.38;3.10;;;;;;;14.99;100.00;100023.16;5028922;28;20028;-77
2023/08/02 00:24:10;;;;;;;9.32;3.33;;;;;;;14.96;100.00;100028.78;5007019;28;20112;-77
2023/08/02 00:26:36;;;;;;;6.75;2.95;;;;;;;15.00;100.00;100018.72;5026452;28;20079;-77
2023/08/02 00:29:01;;;;;;;8.52;3.13;;;;;;;14.92;100.00;100026.63;5019791;28;20029;-77
2023/08/02 00:31:27;;;;;;;10.15;3.55;;;;;;;14.91;100.00;100022.34;5027572;28;20820;-77
2023/08/02 00:33:52;;;;;;;8.63;3.75;;;;;;;14.90;100.00;100031.28;5029121;28;20477;-77
2023/08/02 00:36:17;;;;;;;11.13;3.25;;;;;;;14.91;100.00;100025.81;5028315;28;20037;-77
2023/08/02 00:38:43;;;;;;;8.45;3.28;;;;;;;14.92;100.00;100008.94;5029349;28;20029;-77
2023/08/02 00:41:09;;;;;;;8.27;3.67;;;;;;;14.94;100.00;100004.28;5011129;28;20024;-77
2023/08/02 00:43:43;;;;;;;7.22;3.20;;;;;;;14.95;100.00;100005.94;5009747;28;20036;-77
2023/08/02 00:46:10;;;;;;;7.70;3.10;;;;;;;14.93;100.00;100005.28;5030077;28;20485;-77
2023/08/02 00:48:36;;;;;;;6.68;2.92;;;;;;;14.96;100.00;99997.00;5029901;28;20021;-76
2023/08/02 00:51:03;;;;;;;8.05;3.17;;;;;;;14.97;100.00;99985.41;5029617;28;20103;-77
2023/08/02 00:53:29;;;;;;;8.77;3.47;;;;;;;14.98;100.00;99983.59;5029974;28;20017;-77
2023/08/02 00:55:55;;;;;;;10.10;3.03;;;;;;;15.00;100.00;99974.50;5003952;28;20533;-77
2023/08/02 00:58:20;;;;;;;7.90;3.13;;;;;;;15.02;100.00;99969.88;5024656;28;20108;-77
2023/08/02 01:00:46;;;;;;;8.48;3.25;;;;;;;15.04;100.00;99970.53;5023719;28;20113;-77
2023/08/02 01:03:11;;;;;;;9.68;3.20;;;;;;;15.04;100.00;99973.16;5026875;28;20373;-77
2023/08/02 01:05:46;;;;;;;9.25;3.35;;;;;;;15.08;100.00;99975.50;5028577;28;20070;-77
2023/08/02 01:08:19;;;;;;;9.27;3.55;;;;;;;15.10;100.00;99965.56;5029692;28;20036;-77
2023/08/02 01:11:28;;;;;;;7.45;3.13;;;;;;;15.15;100.00;99971.19;5028172;28;20159;-77
2023/08/02 01:13:56;;;;;;;9.43;3.30;;;;;;;15.13;100.00;99970.53;4982586;28;20048;-76
2023/08/02 01:16:23;;;;;;;9.18;3.22;;;;;;;15.13;100.00;99978.47;5025052;28;20116;-76
2023/08/02 01:18:49;;;;;;;7.22;3.17;;;;;;;15.15;100.00;99981.78;5028094;28;20055;-76
2023/08/02 01:21:14;;;;;;;12.00;3.28;;;;;;;15.16;100.00;99972.84;5028441;28;20068;-77
2023/08/02 01:23:40;;;;;;;12.15;3.58;;;;;;;15.18;100.00;99963.75;5000827;28;20069;-76
2023/08/02 01:26:06;;;;;;;6.65;3.00;;;;;;;15.21;100.00;99958.13;5021845;28;20041;-77
2023/08/02 01:28:39;;;;;;;13.48;3.50;;;;;;;15.24;100.00;99962.28;5020218;28;20033;-76
2023/08/02 01:31:05;;;;;;;12.27;4.07;;;;;;;15.24;100.00;99964.94;5024177;28;20030;-76
2023/08/02 01:33:43;;;;;;;11.32;3.70;;;;;;;15.25;100.00;99962.13;5016229;28;20025;-76
2023/08/02 01:36:08;;;;;;;10.27;3.85;;;;;;;15.26;100.00;99960.28;5028929;28;20437;-76
2023/08/02 01:38:34;;;;;;;9.27;3.50;;;;;;;15.28;100.00;99963.59;5027265;28;20026;-77
2023/08/02 01:40:59;;;;;;;10.60;3.40;;;;;;;15.30;100.00;99951.00;5028760;28;20449;-76
2023/08/02 01:43:24;;;;;;;7.15;3.60;;;;;;;15.33;100.00;99945.38;5002095;28;20187;-77
2023/08/02 01:45:50;;;;;;;8.57;3.25;;;;;;;15.32;100.00;99938.41;5010579;28;20539;-76
2023/08/02 01:48:15;;;;;;;10.00;3.50;;;;;;;15.33;100.00;99929.47;5026342;28;20025;-77
2023/08/02 01:50:40;;;;;;;10.23;3.70;;;;;;;15.33;100.00;99930.31;5010116;28;20437;-76
2023/08/02 01:53:06;;;;;;;9.52;4.00;;;;;;;15.33;100.00;99932.13;5022007;28;20520;-77
2023/08/02 01:55:31;;;;;;;9.85;3.55;;;;;;;15.33;100.00;99925.00;5006953;28;20057;-76
2023/08/02 01:57:56;;;;;;;7.72;3.47;;;;;;;15.34;100.00;99931.13;5015182;28;20136;-76
2023/08/02 02:00:22;;;;;;;8.75;3.80;;;;;;;15.33;100.00;99916.22;5028487;28;20382;-76
2023/08/02 02:02:47;;;;;;;9.45;3.33;;;;;;;15.32;100.00;99902.13;5028718;28;20033;-76
2023/08/02 02:05:12;;;;;;;11.57;3.83;;;;;;;15.30;100.00;99903.31;5021007;28;20188;-76
2023/08/02 02:07:38;;;;;;;11.85;3.88;;;;;;;15.27;100.00;99906.28;5009300;28;20036;-76
2023/08/02 02:10:03;;;;;;;11.40;4.28;;;;;;;15.26;100.00;99888.72;4992091;28;20068;-76
2023/08/02 02:12:29;;;;;;;11.73;3.60;;;;;;;15.26;100.00;99880.78;5018060;28;20052;-76
2023/08/02 02:14:54;;;;;;;10.32;3.78;;;;;;;15.22;100.00;99888.25;5027732;28;20040;-76
2023/08/02 02:17:20;;;;;;;9.45;3.50;;;;;;;15.25;100.00;99873.81;5026856;28;20401;-76
2023/08/02 02:19:45;;;;;;;10.38;3.47;;;;;;;15.25;100.00;99871.19;5010032;28;20033;-76
2023/08/02 02:22:10;;;;;;;8.88;3.72;;;;;;;15.26;100.00;99854.28;5026096;28;20123;-76
2023/08/02 02:24:36;;;;;;;11.27;3.45;;;;;;;15.28;100.00;99844.34;5025706;28;20033;-76
2023/08/02 02:27:01;;;;;;;10.52;3.22;;;;;;;15.27;100.00;99838.22;5028320;28;20491;-76
2023/08/02 02:29:27;;;;;;;8.70;3.58;;;;;;;15.27;100.00;99824.97;5011975;28;21027;-76
2023/08/02 02:31:52;;;;;;;9.02;3.55;;;;;;;15.27;100.00;99824.97;5015427;28;20109;-76
2023/08/02 02:34:17;;;;;;;9.60;3.85;;;;;;;15.29;100.00;99822.13;5009411;28;20021;-76
2023/08/02 02:36:45;;;;;;;9.05;3.47;;;;;;;15.28;100.00;99831.09;5027455;28;20045;-76
2023/08/02 02:39:10;;;;;;;9.77;3.42;;;;;;;15.28;100.00;99823.97;5009132;28;20033;-76
2023/08/02 02:41:36;;;;;;;7.13;3.38;;;;;;;15.27;100.00;99822.31;5027649;28;20488;-76
2023/08/02 02:44:01;;;;;;;7.97;3.45;;;;;;;15.28;100.00;99820.50;5028307;28;20044;-77
2023/08/02 02:46:26;;;;;;;8.80;3.15;;;;;;;15.29;100.00;99811.53;5025223;28;20222;-76
2023/08/02 02:48:52;;;;;;;9.93;3.38;;;;;;;15.31;100.00;99814.84;5025816;28;20401;-76
2023/08/02 02:51:17;;;;;;;9.45;3.95;;;;;;;15.32;100.00;99816.50;5026917;28;20029;-76
2023/08/02 02:53:42;;;;;;;8.02;3.47;;;;;;;15.31;100.00;99825.44;5029481;28;20071;-76
2023/08/02 02:56:10;;;;;;;8.00;3.50;;;;;;;15.32;100.00;99825.28;5022599;28;20021;-76
2023/08/02 02:58:35;;;;;;;7.00;3.10;;;;;;;15.34;100.00;99817.16;5012378;28;20463;-76
2023/08/02 03:01:01;;;;;;;9.85;3.30;;;;;;;15.34;100.00;99803.91;5019033;28;20064;-76
2023/08/02 03:03:26;;;;;;;10.88;3.40;;;;;;;15.36;100.00;99812.50;5011823;28;20561;-76
2023/08/02 03:05:54;;;;;;;7.38;3.40;;;;;;;15.36;100.00;99796.59;5028782;28;20033;-76
2023/08/02 03:08:19;;;;;;;9.27;3.63;;;;;;;15.34;100.00;99777.41;5029894;28;20025;-77
2023/08/02 03:10:44;;;;;;;6.10;3.20;;;;;;;15.36;100.00;99759.50;5013152;28;20044;-76
2023/08/02 03:13:10;;;;;;;8.65;3.45;;;;;;;15.36;100.00;99748.91;5031421;28;20492;-76
2023/08/02 03:15:35;;;;;;;7.97;3.50;;;;;;;15.38;100.00;99738.13;5032485;28;20022;-76
2023/08/02 03:18:00;;;;;;;8.18;3.33;;;;;;;15.39;100.00;99732.66;5031473;28;20736;-77
2023/08/02 03:20:26;;;;;;;7.47;3.30;;;;;;;15.39;100.00;99732.66;5032012;28;20466;-77
2023/08/02 03:22:51;;;;;;;9.15;3.22;;;;;;;15.39;100.00;99731.81;5008404;28;20030;-77
2023/08/02 03:25:17;;;;;;;5.95;2.92;;;;;;;15.39;100.00;99721.22;5028665;28;20414;-76
2023/08/02 03:27:42;;;;;;;10.75;3.10;;;;;;;15.37;100.00;99716.09;5028073;28;20017;-76
2023/08/02 03:30:08;;;;;;;6.57;3.60;;;;;;;15.38;100.00;99714.25;5029967;28;20025;-76
2023/08/02 03:32:33;;;;;;;8.32;3.78;;;;;;;15.37;100.00;99718.75;5031385;28;20071;-76
2023/08/02 03:34:58;;;;;;;7.72;3.40;;;;;;;15.37;100.00;99732.00;5031886;28;20025;-76
2023/08/02 03:37:24;;;;;;;7.55;3.80;;;;;;;15.36;100.00;99728.53;5029602;28;20029;-76
2023/08/02 03:39:49;;;;;;;8.85;3.97;;;;;;;15.37;100.00;99718.75;5017270;28;20033;-76
2023/08/02 03:42:15;;;;;;;6.35;3.67;;;;;;;15.38;100.00;99704.50;5010259;28;20394;-76
2023/08/02 03:44:40;;;;;;;5.80;3.60;;;;;;;15.38;100.00;99704.50;5029293;28;20052;-76
2023/08/02 03:47:06;;;;;;;7.78;3.70;;;;;;;15.37;100.00;99700.19;5030881;28;20033;-76
2023/08/02 03:49:31;;;;;;;9.10;3.80;;;;;;;15.37;100.00;99697.53;5030690;28;20098;-76
2023/08/02 03:51:56;;;;;;;9.38;4.20;;;;;;;15.38;100.00;99691.25;5028605;28;20025;-75
2023/08/02 03:54:22;;;;;;;7.57;3.85;;;;;;;15.37;100.00;99681.63;5024350;28;20022;-76
2023/08/02 03:56:47;;;;;;;9.45;3.78;;;;;;;15.37;100.00;99681.63;5017520;28;20068;-77
2023/08/02 03:59:12;;;;;;;8.25;3.88;;;;;;;15.37;100.00;99671.03;5021511;28;20064;-76
2023/08/02 04:01:38;;;;;;;7.45;4.18;;;;;;;15.35;100.00;99665.91;5028409;28;20474;-76
2023/08/02 04:04:03;;;;;;;9.77;4.13;;;;;;;15.38;100.00;99661.25;5027719;28;20053;-76
2023/08/02 04:06:36;;;;;;;7.68;3.95;;;;;;;15.37;100.00;99655.13;5028190;28;20057;-76
2023/08/02 04:09:01;;;;;;;;;;;;;;;15.45;100.00;99641.81;5028945;28;20021;-75
2023/08/02 04:11:27;;;;;;;9.45;3.90;;;;;;;15.38;100.00;99640.88;5029468;28;20126;-76
2023/08/02 04:13:52;;;;;;;6.80;3.90;;;;;;;15.39;100.00;99631.09;5016422;28;20025;-75
2023/08/02 04:16:17;;;;;;;8.95;4.30;;;;;;;15.37;100.00;99623.31;5025863;28;20064;-75
2023/08/02 04:18:43;;;;;;;9.60;4.30;;;;;;;15.36;100.00;99624.31;5030863;28;20091;-76
2023/08/02 04:21:08;;;;;;;7.53;4.07;;;;;;;15.37;100.00;99610.06;5030148;28;20026;-76
2023/08/02 04:23:33;;;;;;;11.70;4.07;;;;;;;15.36;100.00;99611.06;5027150;28;20036;-76
2023/08/02 04:25:59;;;;;;;8.65;3.90;;;;;;;15.37;100.00;99602.13;5030469;28;20036;-76
2023/08/02 04:28:24;;;;;;;10.90;4.30;;;;;;;15.36;100.00;99590.69;5022351;28;20156;-76
2023/08/02 04:30:50;;;;;;;8.35;4.00;;;;;;;15.37;100.00;99586.22;5003237;28;20057;-77
2023/08/02 04:33:16;;;;;;;9.50;4.25;;;;;;;15.37;100.00;99580.91;5016347;28;20056;-76
2023/08/02 04:35:44;;;;;;;7.07;3.75;;;;;;;15.37;100.00;99580.91;5025120;28;20120;-76
2023/08/02 04:38:09;;;;;;;6.97;4.20;;;;;;;15.37;100.00;99575.63;5016805;28;20108;-76
2023/08/02 04:40:38;;;;;;;8.50;4.60;;;;;;;15.40;100.00;99572.59;5029397;28;20121;-76
2023/08/02 04:43:04;;;;;;;8.75;4.25;;;;;;;15.41;100.00;99562.84;5010600;28;20026;-76
2023/08/02 04:45:29;;;;;;;8.20;4.15;;;;;;;15.41;100.00;99555.72;5019215;28;20391;-76
2023/08/02 04:47:55;;;;;;;6.95;4.57;;;;;;;15.43;100.00;99532.50;5024634;28;20402;-76
2023/08/02 04:50:20;;;;;;;8.05;4.30;;;;;;;15.42;100.00;99517.59;5028540;28;20029;-76
2023/08/02 04:52:45;;;;;;;11.18;4.85;;;;;;;15.43;100.00;99518.41;5029324;28;20025;-76
2023/08/02 04:55:11;;;;;;;7.32;4.20;;;;;;;15.46;100.00;99518.88;5028009;28;20446;-76
2023/08/02 04:57:36;;;;;;;10.55;4.38;;;;;;;15.46;100.00;99518.88;5028693;28;20032;-76
2023/08/02 05:00:01;;;;;;;10.95;4.72;;;;;;;15.47;100.00;99506.47;5028311;28;20040;-75
2023/08/02 05:02:33;;;;;;;10.48;4.68;;;;;;;15.47;100.00;99495.84;5027707;28;20320;-76
2023/08/02 05:04:59;;;;;;;10.20;4.87;;;;;;;15.48;100.00;99498.31;5023115;28;20073;-76
2023/08/02 05:07:24;;;;;;;8.52;4.85;;;;;;;15.48;100.00;99495.66;5009270;28;20057;-77
2023/08/02 05:09:49;;;;;;;7.25;4.60;;;;;;;15.49;100.00;99489.38;4990911;28;20091;-78
2023/08/02 05:12:17;;;;;;;8.32;5.15;;;;;;;15.48;100.00;99502.81;4991407;28;20117;-78
2023/08/02 05:14:43;;;;;;;8.52;4.55;;;;;;;15.48;100.00;99494.84;4991674;28;20053;-76
2023/08/02 05:17:08;;;;;;;8.40;4.88;;;;;;;15.44;100.00;99489.06;5008291;28;20501;-76
2023/08/02 05:19:34;;;;;;;7.65;5.07;;;;;;;15.42;100.00;99472.53;5008135;28;20036;-76
2023/08/02 05:21:59;;;;;;;12.68;4.88;;;;;;;15.41;100.00;99468.22;5005426;28;20025;-77
2023/08/02 05:24:25;;;;;;;9.88;4.65;;;;;;;15.40;100.00;99469.25;5026678;28;20025;-76
2023/08/02 05:26:50;;;;;;;8.95;4.93;;;;;;;15.41;100.00;99464.75;5026791;28;20033;-76
2023/08/02 05:29:15;;;;;;;8.05;4.70;;;;;;;15.39;100.00;99462.28;5012854;28;20037;-77
2023/08/02 05:31:43;;;;;;;10.13;5.20;;;;;;;15.38;100.00;99450.03;5004719;28;20025;-77
2023/08/02 05:34:09;;;;;;;7.43;4.55;;;;;;;15.35;100.00;99440.63;5029336;28;20044;-77
2023/08/02 05:36:34;;;;;;;7.85;5.10;;;;;;;15.35;100.00;99421.25;4994465;28;20030;-77
2023/08/02 05:39:00;;;;;;;5.68;4.40;;;;;;;15.35;100.00;99418.59;5000125;28;20036;-77
2023/08/02 05:41:25;;;;;;;8.60;4.85;;;;;;;15.35;100.00;99415.94;5029051;28;20355;-77
2023/08/02 05:43:50;;;;;;;8.50;5.10;;;;;;;15.35;100.00;99411.47;5028576;28;20079;-77
2023/08/02 05:46:16;;;;;;;8.88;5.10;;;;;;;15.32;100.00;99400.41;5029200;28;20382;-77
2023/08/02 05:48:41;;;;;;;5.50;4.90;;;;;;;15.33;100.00;99399.41;5028613;28;20021;-77
2023/08/02 05:51:10;;;;;;;6.90;4.22;;;;;;;15.33;100.00;99399.41;5028534;28;20025;-76
2023/08/02 05:53:35;;;;;;;6.40;4.88;;;;;;;15.30;100.00;99392.63;5026986;28;20086;-77
2023/08/02 05:56:01;;;;;;;6.25;4.55;;;;;;;15.31;100.00;99386.34;5002623;28;20452;-76
2023/08/02 05:58:26;;;;;;;7.90;4.45;;;;;;;15.31;100.00;99375.72;5025224;28;20037;-76
2023/08/02 06:00:52;;;;;;;7.60;4.55;;;;;;;15.32;100.00;99360.66;5002585;28;20017;-77
2023/08/02 06:03:19;;;;;;;7.38;4.60;;;;;;;15.33;100.00;99349.03;5009699;28;20026;-76
2023/08/02 06:05:44;;;;;;;6.03;4.15;;;;;;;15.32;100.00;99334.16;5027829;28;20486;-75
2023/08/02 06:08:10;;;;;;;4.82;3.72;;;;;;;15.33;100.00;99327.84;5015642;28;20036;-76
2023/08/02 06:10:35;;;;;;;4.93;3.80;;;;;;;15.36;100.00;99322.19;5025491;28;20116;-76
2023/08/02 06:13:01;;;;;;;6.50;3.90;;;;;;;15.35;100.00;99309.94;5025945;28;20885;-76
2023/08/02 06:15:27;;;;;;;5.97;3.33;;;;;;;15.35;100.00;99309.94;5030888;28;20112;-76
2023/08/02 06:17:52;;;;;;;4.13;3.70;;;;;;;15.36;100.00;99309.75;5028961;28;20025;-77
2023/08/02 06:20:18;;;;;;;5.15;3.55;;;;;;;15.36;100.00;99303.63;5026751;28;20030;-77
2023/08/02 06:22:43;;;;;;;4.45;3.42;;;;;;;15.38;100.00;99285.72;5026560;28;20385;-77
2023/08/02 06:25:09;;;;;;;4.13;3.45;;;;;;;15.38;100.00;99288.38;5027448;28;20495;-77
2023/08/02 06:27:34;;;;;;;5.05;3.10;;;;;;;15.40;100.00;99282.88;5027973;28;20057;-77
2023/08/02 06:30:00;;;;;;;4.65;2.85;;;;;;;15.41;100.00;99277.41;5007209;28;20029;-77
2023/08/02 06:32:25;;;;;;;3.88;3.30;;;;;;;15.42;100.00;99272.91;5031717;28;20021;-78
2023/08/02 06:34:51;;;;;;;3.40;2.88;;;;;;;15.46;100.00;99271.53;5027965;28;20079;-77
2023/08/02 06:37:16;;;;;;;6.82;3.20;;;;;;;15.45;100.00;99254.81;5031799;28;20036;-77
2023/08/02 06:39:41;;;;;;;3.03;2.72;;;;;;;15.45;100.00;99249.50;5025757;28;20025;-77
2023/08/02 06:42:10;;;;;;;7.72;3.08;;;;;;;15.45;100.00;99246.03;5023414;28;20018;-78
2023/08/02 06:44:35;;;;;;;5.07;2.92;;;;;;;15.46;100.00;99235.25;5012426;28;20022;-78
2023/08/02 06:47:00;;;;;;;4.45;2.88;;;;;;;15.46;100.00;99232.59;5013785;28;20969;-78
2023/08/02 06:49:26;;;;;;;2.95;2.65;;;;;;;15.47;100.00;99223.66;5012802;28;20033;-78
2023/08/02 06:51:51;;;;;;;3.20;2.85;;;;;;;15.49;100.00;99208.38;5031150;28;20033;-78
2023/08/02 06:54:17;;;;;;;4.82;2.95;;;;;;;15.51;100.00;99201.06;5029376;28;20049;-78
2023/08/02 06:56:42;;;;;;;3.63;2.75;;;;;;;15.52;100.00;99192.09;5029140;28;20596;-78
2023/08/02 06:59:10;;;;;;;4.93;3.00;;;;;;;15.50;100.00;99191.47;5029585;28;20095;-78
2023/08/02 07:01:36;;;;;;;3.42;2.60;;;;;;;15.52;100.00;99185.97;5031746;28;20017;-77
2023/08/02 07:04:01;;;;;;;4.57;2.70;;;;;;;15.50;100.00;99183.50;5020854;28;20518;-77
2023/08/02 07:06:27;;;;;;;2.65;2.38;;;;;;;15.53;100.00;99166.41;5009419;28;20041;-76
2023/08/02 07:08:52;;;;;;;3.20;2.50;;;;;;;15.52;100.00;99164.78;4991882;28;20516;-78
2023/08/02 07:11:18;;;;;;;2.70;2.50;;;;;;;15.55;100.00;99167.03;5011512;28;20105;-77
2023/08/02 07:13:45;;;;;;;2.70;2.50;;;;;;;15.56;100.00;99168.69;5009408;28;20080;-77
2023/08/02 07:16:11;;;;;;;4.05;2.40;;;;;;;15.55;100.00;99162.56;5010131;28;20038;-78
2023/08/02 07:18:37;;;;;;;3.95;2.40;;;;;;;15.56;100.00;99160.72;5011805;28;20030;-77
2023/08/02 07:21:05;;;;;;;3.20;2.10;;;;;;;15.56;100.00;99161.56;4993402;28;20040;-77
2023/08/02 07:23:31;;;;;;;2.40;2.20;;;;;;;15.58;100.00;99159.56;5008778;28;20040;-77
2023/08/02 07:25:56;;;;;;;5.43;2.30;;;;;;;15.58;100.00;99159.56;5011192;28;20030;-78
2023/08/02 07:28:22;;;;;;;3.35;2.25;;;;;;;15.59;100.00;99150.59;5010755;28;20030;-77
2023/08/02 07:30:47;;;;;;;3.25;2.35;;;;;;;15.62;100.00;99149.44;5009657;28;20100;-77
2023/08/02 07:33:12;;;;;;;2.53;2.33;;;;;;;15.66;100.00;99140.91;5010454;28;20117;-77
2023/08/02 07:35:38;;;;;;;6.97;2.67;;;;;;;15.69;100.00;99133.59;5006397;28;20062;-78
2023/08/02 07:38:03;;;;;;;3.10;2.40;;;;;;;15.72;100.00;99125.25;5008060;28;20687;-78
2023/08/02 07:40:29;;;;;;;2.97;2.38;;;;;;;15.75;100.00;99127.53;4992860;28;20156;-79
2023/08/02 07:42:54;;;;;;;5.18;2.40;;;;;;;15.79;100.00;99123.50;5009307;28;20026;-79
2023/08/02 07:45:20;;;;;;;3.70;2.40;;;;;;;15.83;100.00;99109.66;5009785;28;20109;-78
2023/08/02 07:47:45;;;;;;;5.80;2.35;;;;;;;15.90;100.00;99113.19;4992151;28;20034;-81
2023/08/02 07:50:11;;;;;;;4.70;2.22;;;;;;;15.99;100.00;99114.69;5007873;28;20034;-79
2023/08/02 07:52:38;;;;;;;3.95;2.42;;;;;;;16.04;100.00;99108.84;5010922;28;20116;-79
2023/08/02 07:55:04;;;;;;;3.55;2.13;;;;;;;16.09;100.00;99093.16;4992333;28;20026;-79
2023/08/02 07:57:33;;;;;;;4.68;2.50;;;;;;;16.11;100.00;99085.84;5004803;28;20556;-80
2023/08/02 07:59:59;;;;;;;3.08;2.15;;;;;;;16.17;100.00;99084.25;5008817;28;20022;-80
2023/08/02 08:02:25;;;;;;;3.03;2.10;;;;;;;16.23;100.00;99083.47;5009103;28;20136;-80
2023/08/02 08:04:54;;;;;;;2.60;2.25;;;;;;;16.26;100.00;99083.06;5019387;28;20600;-80
2023/08/02 08:07:20;;;;;;;3.05;2.10;;;;;;;16.30;100.00;99085.16;5029752;28;20029;-80
2023/08/02 08:09:46;;;;;;;2.38;2.00;;;;;;;16.32;100.00;99087.59;5009052;28;20026;-79
2023/08/02 08:12:12;;;;;;;2.20;1.90;;;;;;;16.36;100.00;99077.41;5029144;28;20647;-78
2023/08/02 08:14:44;;;;;;;2.03;1.70;;;;;;;16.39;100.00;99080.50;5029765;28;20393;-78
2023/08/02 08:17:09;;;;;;;3.70;1.77;;;;;;;16.40;100.00;99076.84;5009772;28;20030;-77
2023/08/02 08:19:35;;;;;;;2.58;1.80;;;;;;;16.42;100.00;99056.25;5010742;28;20029;-78
2023/08/02 08:22:00;;;;;;;2.08;1.40;;;;;;;16.48;100.00;99049.34;5029237;28;20040;-78
2023/08/02 08:24:26;;;;;;;4.45;1.55;;;;;;;16.50;100.00;99057.94;5009481;28;20034;-78
2023/08/02 08:26:55;;;;;;;3.63;1.90;;;;;;;16.57;100.00;99069.41;5020307;28;20022;-78
2023/08/02 08:29:20;;;;;;;6.43;1.80;;;;;;;16.58;100.00;99066.56;5030282;28;20033;-79
2023/08/02 08:31:45;;;;;;;2.10;1.60;;;;;;;16.67;100.00;99053.13;5028355;28;20029;-78
2023/08/02 08:34:14;;;;;;;2.08;1.58;;;;;;;16.70;100.00;99050.91;5027507;28;20033;-78
2023/08/02 08:36:42;;;;;;;1.48;1.30;;;;;;;16.79;100.00;99056.88;5029773;28;20033;-78
2023/08/02 08:39:10;;;;;;;1.50;1.40;;;;;;;16.84;100.00;99063.25;5027356;28;20082;-79
2023/08/02 08:41:36;;;;;;;3.05;1.30;;;;;;;16.88;100.00;99048.56;5012494;28;20017;-79
2023/08/02 08:44:03;;;;;;;2.08;1.42;;;;;;;16.97;100.00;99049.19;5030145;28;20148;-78
2023/08/02 08:46:32;;;;;;;2.40;1.60;;;;;;;17.05;100.00;99045.53;5028703;28;20041;-78
2023/08/02 08:48:59;;;;;;;1.50;1.40;;;;;;;17.14;100.00;99047.00;5029217;28;20443;-77
2023/08/02 08:51:27;;;;;;;1.98;1.42;;;;;;;17.19;100.00;99048.03;5029452;28;20025;-77
2023/08/02 08:53:54;;;;;;;4.40;1.80;;;;;;;17.21;100.00;99043.38;5031182;28;20041;-77
2023/08/02 08:56:24;;;;;;;2.03;1.40;;;;;;;17.30;100.00;99038.69;5022748;28;20028;-78
2023/08/02 08:58:51;;;;;;;1.50;1.40;;;;;;;17.39;100.00;99039.31;5028414;28;20025;-77
2023/08/02 09:01:17;;;;;;;3.00;1.65;;;;;;;17.57;100.00;99028.06;5009410;28;20026;-78
2023/08/02 09:03:45;;;;;;;2.30;1.50;;;;;;;17.66;100.00;99017.06;5027967;28;20044;-77
2023/08/02 09:06:13;;;;;;;1.27;1.17;;;;;;;17.83;100.00;99012.97;5026552;28;20029;-78
2023/08/02 09:08:47;;;;;;;1.50;1.40;;;;;;;18.02;100.00;99013.19;5011547;28;20546;-78
2023/08/02 09:11:13;;;;;;;3.45;1.73;;;;;;;18.05;100.00;99010.13;5009627;28;20428;-77
2023/08/02 09:13:40;;;;;;;1.33;1.15;;;;;;;18.13;100.00;99007.22;5030004;28;20041;-78
2023/08/02 09:16:13;;;;;;;1.33;1.27;;;;;;;18.26;100.00;99001.06;5028813;28;20104;-78
2023/08/02 09:18:46;;;;;;;1.27;1.00;;;;;;;18.39;100.00;98995.69;5010522;28;20029;-79
2023/08/02 09:21:20;;;;;;;1.45;1.08;;;;;;;18.49;100.00;98990.75;5019022;28;20026;-78
2023/08/02 09:24:00;;;;;;;1.42;1.20;;;;;;;18.62;100.00;98992.59;5022283;28;20541;-77
2023/08/02 09:26:26;;;;;;;1.38;1.00;;;;;;;18.66;100.00;98986.63;5001147;28;20034;-77
2023/08/02 09:28:59;;;;;;;2.22;1.20;;;;;;;18.75;100.00;98989.88;5027514;28;20076;-78
2023/08/02 09:31:26;;;;;;;1.40;1.00;;;;;;;18.84;100.00;98966.47;5011129;28;20402;-78
2023/08/02 09:33:57;;;;;;;1.27;1.10;;;;;;;18.86;100.00;98964.41;5028721;28;20032;-78
2023/08/02 09:36:34;;;;;;;2.70;1.30;;;;;;;18.87;100.00;98968.72;5027255;28;20056;-78
2023/08/02 09:39:19;;;;;;;2.00;1.00;;;;;;;18.98;100.00;98968.03;5009967;28;20028;-78
2023/08/02 09:41:44;;;;;;;1.52;1.02;;;;;;;19.05;100.00;98966.13;5010424;28;20022;-77
2023/08/02 09:44:20;;;;;;;1.00;0.80;;;;;;;19.37;100.00;98961.63;5027763;28;20029;-78
2023/08/02 09:46:45;;;;;;;3.00;0.90;;;;;;;19.64;100.00;98954.28;5016661;28;20029;-78
2023/08/02 09:49:18;;;;;;;1.35;0.90;;;;;;;19.97;100.00;98957.44;5010292;28;20029;-79
2023/08/02 09:51:44;;;;;;;0.90;0.70;;;;;;;20.05;100.00;98963.56;5027774;28;20057;-78
2023/08/02 09:54:11;;;;;;;2.75;0.70;;;;;;;20.22;100.00;98956.59;5028213;28;20072;-78
2023/08/02 09:56:39;;;;;;;1.58;0.80;;;;;;;20.31;100.00;98947.22;5027318;28;20477;-79
2023/08/02 09:59:05;;;;;;;1.15;0.80;;;;;;;20.34;100.00;98958.28;5027639;28;20547;-79
2023/08/02 10:01:32;;;;;;;1.13;0.82;;;;;;;20.27;100.00;98943.38;5028094;28;20561;-78
2023/08/02 10:03:59;;;;;;;1.73;0.70;;;;;;;20.16;100.00;98944.94;5030915;28;20052;-78
2023/08/02 10:06:42;;;;;;;2.10;0.75;;;;;;;20.13;100.00;98960.59;5025320;28;20538;-78
2023/08/02 10:09:11;;;;;;;;;;;;;;;20.29;100.00;98943.97;5024309;28;20036;-79
2023/08/02 10:11:42;;;;;;;1.13;0.70;;;;;;;20.59;100.00;98944.88;5019978;28;20549;-78
2023/08/02 10:14:09;;;;;;;1.67;0.70;;;;;;;20.86;100.00;98939.19;5014368;28;20037;-78
2023/08/02 10:16:37;;;;;;;1.67;0.80;;;;;;;21.05;100.00;98916.69;5032043;28;20034;-79
2023/08/02 10:19:03;;;;;;;0.70;0.60;;;;;;;21.06;100.00;98918.31;5014469;28;20034;-78
2023/08/02 10:21:33;;;;;;;1.52;0.80;;;;;;;21.19;100.00;98902.06;5031679;28;20071;-78
2023/08/02 10:23:59;;;;;;;0.80;0.73;;;;;;;21.37;100.00;98905.75;5030729;28;20140;-78
2023/08/02 10:26:25;;;;;;;0.88;0.70;;;;;;;21.40;100.00;98891.91;5030228;28;20120;-78
2023/08/02 10:28:52;;;;;;;1.40;0.90;;;;;;;21.41;100.00;98897.03;5032937;28;20025;-78
2023/08/02 10:31:18;;;;;;;0.70;0.70;;;;;;;21.35;100.00;98905.97;5030470;28;20105;-78
2023/08/02 10:33:43;;;;;;;2.35;0.90;;;;;;;21.21;100.00;98889.31;5013347;28;20120;-79
2023/08/02 10:36:09;;;;;;;1.30;0.80;;;;;;;21.21;100.00;98886.63;5031456;28;20051;-78
2023/08/02 10:38:37;;;;;;;1.48;0.90;;;;;;;21.13;100.00;98886.94;5011497;28;20126;-78
2023/08/02 10:41:05;;;;;;;0.77;0.73;;;;;;;21.08;100.00;98883.31;5020107;28;20025;-79
2023/08/02 10:43:31;;;;;;;1.00;0.85;;;;;;;20.95;100.00;98868.31;5020688;28;20108;-79
2023/08/02 10:46:22;;;;;;;1.17;0.90;;;;;;;20.92;100.00;98874.94;5018390;28;20029;-78
2023/08/02 10:48:48;;;;;;;1.05;1.00;;;;;;;20.71;100.00;98882.63;5020291;28;20359;-78
2023/08/02 10:51:31;;;;;;;1.15;1.10;;;;;;;20.54;100.00;98890.47;5011607;28;20033;-78
2023/08/02 10:54:19;;;;;;;2.03;1.05;;;;;;;20.36;100.00;98888.59;5030216;28;20037;-78
2023/08/02 10:56:50;;;;;;;2.17;1.20;;;;;;;20.22;100.00;98879.94;5031758;28;20021;-78
2023/08/02 10:59:35;;;;;;;1.65;1.40;;;;;;;20.13;100.00;98846.59;5031912;28;20394;-79
2023/08/02 11:02:02;;;;;;;2.00;1.50;;;;;;;20.18;100.00;98845.91;5026112;28;20018;-79
2023/08/02 11:04:30;;;;;;;2.35;1.20;;;;;;;20.15;100.00;98846.34;5030790;28;20468;-80
2023/08/02 11:06:55;;;;;;;1.45;1.35;;;;;;;20.11;100.00;98846.00;5031254;28;20672;-79
2023/08/02 11:09:30;;;;;;;1.30;1.20;;;;;;;20.06;100.00;98859.19;5013552;28;20137;-80
2023/08/02 11:11:56;;;;;;;1.83;1.30;;;;;;;19.93;100.00;98848.66;5013961;28;20455;-80
2023/08/02 11:14:30;;;;;;;3.47;1.58;;;;;;;19.85;100.00;98857.78;5030549;28;20025;-78
2023/08/02 11:16:57;;;;;;;2.90;1.65;;;;;;;19.79;100.00;98869.34;5013893;28;20025;-78
2023/08/02 11:19:22;;;;;;;2.10;1.60;;;;;;;19.73;100.00;98875.56;5031615;28;20025;-79
2023/08/02 11:21:59;;;;;;;3.50;1.80;;;;;;;19.67;100.00;98887.94;5030930;28;20474;-78
2023/08/02 11:24:25;;;;;;;2.72;1.70;;;;;;;19.59;100.00;98874.06;5030673;28;20034;-79